createdAt,value
2018-01-23T00:02:09.817Z,3.40
2018-01-23T00:04:36.143Z,3.40
2018-01-23T00:07:02.503Z,3.50
2018-01-23T00:09:28.728Z,3.50
2018-01-23T00:11:54.944Z,3.60
2018-01-23T00:14:21.256Z,3.70
2018-01-23T00:16:47.574Z,3.70
2018-01-23T00:19:13.761Z,3.80
2018-01-23T00:21:40.029Z,3.70
2018-01-23T00:24:06.342Z,3.80
2018-01-23T00:26:33.351Z,3.80
2018-01-23T00:28:59.593Z,3.80
2018-01-23T00:31:25.857Z,3.70
2018-01-23T00:33:52.891Z,3.90
2018-01-23T00:36:19.175Z,3.90
2018-01-23T00:38:45.389Z,4.00
2018-01-23T00:41:11.879Z,4.00
2018-01-23T00:43:38.155Z,4.10
2018-01-23T00:46:04.397Z,4.10
2018-01-23T00:48:30.699Z,4.10
2018-01-23T00:50:56.947Z,4.10
2018-01-23T00:53:23.160Z,4.10
2018-01-23T00:55:49.442Z,4.20
2018-01-23T00:58:15.682Z,4.20
2018-01-23T01:00:41.944Z,4.30
2018-01-23T01:03:08.976Z,4.10
2018-01-23T01:05:35.355Z,4.10
2018-01-23T01:08:01.642Z,4.10
2018-01-23T01:10:28.594Z,4.20
2018-01-23T01:12:55.624Z,4.10
2018-01-23T01:15:21.846Z,4.10
2018-01-23T01:17:48.120Z,4.10
2018-01-23T01:20:14.353Z,4.10
2018-01-23T01:22:40.623Z,4.00
2018-01-23T01:25:06.877Z,4.10
2018-01-23T01:27:33.936Z,4.10
2018-01-23T01:30:00.903Z,4.10
2018-01-23T01:32:27.155Z,4.10
2018-01-23T01:34:53.375Z,4.10
2018-01-23T01:37:19.633Z,4.10
2018-01-23T01:39:45.867Z,4.10
2018-01-23T01:42:12.227Z,4.20
2018-01-23T01:44:39.224Z,4.30
2018-01-23T01:47:05.519Z,4.20
2018-01-23T01:49:31.769Z,4.30
2018-01-23T01:51:58.091Z,4.30
2018-01-23T01:54:24.383Z,4.20
2018-01-23T01:56:50.665Z,4.20
2018-01-23T01:59:16.951Z,4.20
2018-01-23T02:01:43.938Z,4.10
2018-01-23T02:04:10.224Z,4.10
2018-01-23T02:06:37.242Z,4.00
2018-01-23T02:09:03.480Z,4.00
2018-01-23T02:11:29.753Z,4.00
2018-01-23T02:13:55.999Z,4.00
2018-01-23T02:16:22.284Z,4.10
2018-01-23T02:18:48.516Z,4.10
2018-01-23T02:21:15.574Z,4.00
2018-01-23T02:23:42.563Z,4.00
2018-01-23T02:26:08.845Z,4.00
2018-01-23T02:28:35.861Z,3.90
2018-01-23T02:31:02.181Z,3.90
2018-01-23T02:33:28.464Z,4.00
2018-01-23T02:35:55.457Z,4.10
2018-01-23T02:38:21.713Z,4.00
2018-01-23T02:40:47.972Z,4.10
2018-01-23T02:43:14.994Z,4.10
2018-01-23T02:45:42.726Z,4.10
2018-01-23T02:48:09.216Z,4.10
2018-01-23T02:50:36.174Z,4.10
2018-01-23T02:53:02.420Z,4.10
2018-01-23T02:55:28.690Z,4.10
2018-01-23T02:57:54.924Z,4.10
2018-01-23T03:00:21.212Z,4.10
2018-01-23T03:02:47.446Z,4.10
2018-01-23T03:05:13.790Z,4.10
2018-01-23T03:07:40.068Z,4.20
2018-01-23T03:10:07.094Z,4.30
2018-01-23T03:12:33.387Z,4.30
2018-01-23T03:14:59.697Z,4.40
2018-01-23T03:17:27.013Z,4.40
2018-01-23T03:19:53.333Z,4.40
2018-01-23T03:22:19.565Z,4.50
2018-01-23T03:24:45.860Z,4.40
2018-01-23T03:27:12.190Z,4.40
2018-01-23T03:29:38.411Z,4.30
2018-01-23T03:32:04.688Z,4.40
2018-01-23T03:34:30.915Z,4.40
2018-01-23T03:36:57.202Z,4.30
2018-01-23T03:39:23.434Z,4.40
2018-01-23T03:41:49.696Z,4.40
2018-01-23T03:44:15.938Z,4.40
2018-01-23T03:46:42.256Z,4.50
2018-01-23T03:49:08.585Z,4.40
2018-01-23T03:51:34.867Z,4.50
2018-01-23T03:54:01.110Z,4.50
2018-01-23T03:56:27.632Z,4.50
2018-01-23T03:58:53.890Z,4.60
2018-01-23T04:01:20.176Z,4.50
2018-01-23T04:03:47.184Z,4.50
2018-01-23T04:06:13.487Z,4.50
2018-01-23T04:08:39.784Z,4.50
2018-01-23T04:11:06.818Z,4.60
2018-01-23T04:13:33.821Z,4.60
2018-01-23T04:16:00.157Z,4.60
2018-01-23T04:18:26.443Z,4.60
2018-01-23T04:20:53.485Z,4.70
2018-01-23T04:23:20.453Z,4.60
2018-01-23T04:25:46.719Z,4.60
2018-01-23T04:28:13.029Z,4.70
2018-01-23T04:30:39.345Z,4.70
2018-01-23T04:33:05.600Z,4.70
2018-01-23T04:35:31.911Z,4.70
2018-01-23T04:37:58.167Z,4.70
2018-01-23T04:40:24.422Z,4.70
2018-01-23T04:42:50.675Z,4.80
2018-01-23T04:45:17.738Z,4.70
2018-01-23T04:47:43.966Z,4.60
2018-01-23T04:50:10.224Z,4.60
2018-01-23T04:52:36.506Z,4.60
2018-01-23T04:55:03.668Z,4.70
2018-01-23T04:57:29.972Z,4.70
2018-01-23T04:59:56.224Z,4.60
2018-01-23T05:02:22.493Z,4.60
2018-01-23T05:04:48.760Z,4.60
2018-01-23T05:07:15.043Z,4.70
2018-01-23T05:09:41.313Z,4.70
2018-01-23T05:12:07.614Z,4.60
2018-01-23T05:14:33.903Z,4.70
2018-01-23T05:17:00.192Z,4.70
2018-01-23T05:19:26.544Z,4.60
2018-01-23T05:21:52.895Z,4.60
2018-01-23T05:24:19.924Z,4.70
2018-01-23T05:26:46.235Z,4.70
2018-01-23T05:29:12.511Z,4.70
2018-01-23T05:31:38.882Z,4.70
2018-01-23T05:34:05.207Z,4.70
2018-01-23T05:36:31.619Z,4.70
2018-01-23T05:38:57.936Z,4.70
2018-01-23T05:41:25.190Z,4.70
2018-01-23T05:43:51.708Z,4.70
2018-01-23T05:46:18.871Z,4.60
2018-01-23T05:48:45.925Z,4.60
2018-01-23T05:51:12.302Z,4.60
2018-01-23T05:53:38.593Z,4.50
2018-01-23T05:56:04.862Z,4.50
2018-01-23T05:58:31.156Z,4.50
2018-01-23T06:00:57.514Z,4.50
2018-01-23T06:03:23.990Z,4.40
2018-01-23T06:05:51.090Z,4.40
2018-01-23T06:08:17.495Z,4.40
2018-01-23T06:10:43.811Z,4.50
2018-01-23T06:13:10.833Z,4.50
2018-01-23T06:15:37.119Z,4.50
2018-01-23T06:18:03.429Z,4.50
2018-01-23T06:20:30.469Z,4.50
2018-01-23T06:22:57.505Z,4.50
2018-01-23T06:25:23.779Z,4.40
2018-01-23T06:27:50.014Z,4.50
2018-01-23T06:30:16.326Z,4.50
2018-01-23T06:32:42.592Z,4.40
2018-01-23T06:35:10.362Z,4.40
2018-01-23T06:37:37.316Z,4.40
2018-01-23T06:40:04.366Z,4.40
2018-01-23T06:42:30.684Z,4.50
2018-01-23T06:44:56.938Z,4.50
2018-01-23T06:47:23.176Z,4.50
2018-01-23T06:49:50.192Z,4.60
2018-01-23T06:52:16.437Z,4.60
2018-01-23T06:54:42.682Z,4.70
2018-01-23T06:57:09.685Z,4.90
2018-01-23T06:59:35.945Z,4.90
2018-01-23T07:02:02.245Z,4.90
2018-01-23T07:04:28.480Z,4.90
2018-01-23T07:06:54.737Z,4.90
2018-01-23T07:09:20.993Z,4.90
2018-01-23T07:11:48.015Z,5.00
2018-01-23T07:14:15.775Z,5.10
2018-01-23T07:16:42.033Z,5.10
2018-01-23T07:19:09.058Z,5.10
2018-01-23T07:21:35.296Z,5.10
2018-01-23T07:24:02.273Z,5.20
2018-01-23T07:26:28.558Z,5.10
2018-01-23T07:28:54.903Z,5.10
2018-01-23T07:31:21.868Z,5.40
2018-01-23T07:33:55.459Z,5.40
2018-01-23T07:36:22.687Z,5.50
2018-01-23T07:38:48.934Z,5.40
2018-01-23T07:41:15.968Z,5.60
2018-01-23T07:43:42.274Z,5.50
2018-01-23T07:46:08.492Z,5.50
2018-01-23T07:48:34.762Z,5.50
2018-01-23T07:51:01.808Z,5.50
2018-01-23T07:53:28.096Z,5.40
2018-01-23T07:55:54.344Z,5.50
2018-01-23T07:58:20.598Z,5.50
2018-01-23T08:00:46.850Z,5.40
2018-01-23T08:03:13.838Z,5.30
2018-01-23T08:05:40.829Z,5.30
2018-01-23T08:08:07.843Z,5.30
2018-01-23T08:10:34.099Z,5.20
2018-01-23T08:13:00.339Z,5.20
2018-01-23T08:15:27.355Z,5.20
2018-01-23T08:17:53.599Z,5.20
2018-01-23T08:20:19.901Z,5.20
2018-01-23T08:22:46.119Z,5.30
2018-01-23T08:25:12.343Z,5.20
2018-01-23T08:27:38.622Z,5.30
2018-01-23T08:30:04.939Z,5.30
2018-01-23T08:32:31.168Z,5.40
2018-01-23T08:34:57.397Z,5.40
2018-01-23T08:37:23.629Z,5.40
2018-01-23T08:39:49.920Z,5.40
2018-01-23T08:42:16.274Z,5.50
2018-01-23T08:44:42.501Z,5.50
2018-01-23T08:47:08.726Z,5.60
2018-01-23T08:49:34.973Z,5.70
2018-01-23T08:52:01.224Z,5.70
2018-01-23T08:54:27.488Z,5.50
2018-01-23T08:56:53.752Z,5.60
2018-01-23T08:59:20.050Z,5.80
2018-01-23T09:01:46.302Z,5.90
2018-01-23T09:04:12.576Z,6.10
2018-01-23T09:06:39.588Z,6.00
2018-01-23T09:09:05.858Z,6.00
2018-01-23T09:11:32.842Z,6.20
2018-01-23T09:13:59.941Z,6.20
2018-01-23T09:16:26.178Z,6.30
2018-01-23T09:18:53.139Z,6.10
2018-01-23T09:21:20.339Z,6.20
2018-01-23T09:23:46.631Z,6.10
2018-01-23T09:26:12.879Z,6.20
2018-01-23T09:28:39.155Z,6.30
2018-01-23T09:31:05.453Z,6.40
2018-01-23T09:33:31.725Z,6.70
2018-01-23T09:35:58.734Z,6.70
2018-01-23T09:38:24.999Z,6.70
2018-01-23T09:40:58.795Z,6.70
2018-01-23T09:43:25.045Z,6.70
2018-01-23T09:45:52.037Z,6.60
2018-01-23T09:48:18.243Z,6.50
2018-01-23T09:50:44.555Z,6.70
2018-01-23T09:53:11.549Z,7.00
2018-01-23T09:55:38.425Z,6.90
2018-01-23T09:58:05.419Z,6.70
2018-01-23T10:00:31.697Z,6.70
2018-01-23T10:02:57.943Z,6.70
2018-01-23T10:05:24.893Z,6.70
2018-01-23T10:07:51.926Z,6.60
2018-01-23T10:10:18.156Z,6.60
2018-01-23T10:12:44.422Z,6.70
2018-01-23T10:15:10.699Z,6.70
2018-01-23T10:17:36.930Z,6.80
2018-01-23T10:20:03.197Z,6.80
2018-01-23T10:22:29.455Z,6.80
2018-01-23T10:24:55.738Z,7.20
2018-01-23T10:27:22.694Z,7.30
2018-01-23T10:29:49.717Z,7.20
2018-01-23T10:32:15.992Z,7.20
2018-01-23T10:34:42.238Z,7.30
2018-01-23T10:37:08.492Z,7.10
2018-01-23T10:39:35.506Z,6.90
2018-01-23T10:42:01.867Z,6.90
2018-01-23T10:44:28.175Z,7.10
2018-01-23T10:46:54.776Z,6.90
2018-01-23T10:49:21.761Z,7.30
2018-01-23T10:51:48.011Z,7.30
2018-01-23T10:54:14.312Z,7.30
2018-01-23T10:56:40.591Z,7.40
2018-01-23T10:59:06.885Z,7.30
2018-01-23T11:01:39.254Z,7.10
2018-01-23T11:04:05.554Z,7.20
2018-01-23T11:06:32.582Z,7.10
2018-01-23T11:08:59.783Z,7.10
2018-01-23T11:11:26.050Z,7.20
2018-01-23T11:13:52.331Z,7.30
2018-01-23T11:16:18.616Z,7.40
2018-01-23T11:18:44.941Z,7.20
2018-01-23T11:21:11.203Z,7.40
2018-01-23T11:23:38.411Z,7.60
2018-01-23T11:26:04.656Z,7.60
2018-01-23T11:28:30.915Z,7.70
2018-01-23T11:31:05.606Z,7.70
2018-01-23T11:33:31.842Z,7.60
2018-01-23T11:35:58.124Z,7.70
2018-01-23T11:38:24.386Z,7.80
2018-01-23T11:40:50.622Z,8.00
2018-01-23T11:43:17.027Z,7.90
2018-01-23T11:45:43.385Z,7.60
2018-01-23T11:48:09.672Z,7.60
2018-01-23T11:50:36.039Z,7.90
2018-01-23T11:53:02.287Z,8.00
2018-01-23T11:55:28.639Z,7.80
2018-01-23T11:57:55.614Z,7.40
2018-01-23T12:00:21.881Z,7.40
2018-01-23T12:02:48.159Z,7.50
2018-01-23T12:05:14.481Z,7.30
2018-01-23T12:07:41.513Z,7.30
2018-01-23T12:10:08.548Z,7.40
2018-01-23T12:12:34.969Z,7.40
2018-01-23T12:15:01.232Z,7.40
2018-01-23T12:17:27.456Z,7.50
2018-01-23T12:19:54.556Z,8.00
2018-01-23T12:22:20.776Z,8.00
2018-01-23T12:24:47.067Z,8.10
2018-01-23T12:27:14.049Z,8.20
2018-01-23T12:29:40.334Z,8.20
2018-01-23T12:32:07.314Z,8.30
2018-01-23T12:34:33.577Z,8.20
2018-01-23T12:37:00.662Z,8.30
2018-01-23T12:39:27.054Z,8.20
2018-01-23T12:41:53.335Z,8.10
2018-01-23T12:44:19.624Z,8.10
2018-01-23T12:46:45.887Z,8.60
2018-01-23T12:49:12.878Z,12.90
2018-01-23T12:51:39.121Z,12.90
2018-01-23T12:54:05.385Z,16.40
2018-01-23T12:56:31.635Z,18.70
2018-01-23T12:58:57.951Z,19.30
2018-01-23T13:01:24.971Z,18.40
2018-01-23T13:03:52.750Z,16.40
2018-01-23T13:06:19.028Z,16.40
2018-01-23T13:08:45.756Z,17.60
2018-01-23T13:11:12.016Z,18.30
2018-01-23T13:13:38.270Z,16.90
2018-01-23T13:16:04.532Z,16.80
2018-01-23T13:18:31.520Z,15.20
2018-01-23T13:20:57.740Z,15.20
2018-01-23T13:23:23.978Z,13.90
2018-01-23T13:25:50.245Z,13.70
2018-01-23T13:28:16.492Z,14.00
2018-01-23T13:30:43.551Z,14.70
2018-01-23T13:33:10.570Z,15.00
2018-01-23T13:35:36.829Z,14.90
2018-01-23T13:38:03.807Z,13.90
2018-01-23T13:40:30.113Z,13.80
2018-01-23T13:42:56.605Z,12.20
2018-01-23T13:45:23.019Z,11.90
2018-01-23T13:47:49.313Z,10.40
2018-01-23T13:50:15.579Z,9.80
2018-01-23T13:52:42.154Z,9.40
2018-01-23T13:55:09.168Z,8.80
2018-01-23T13:57:35.434Z,8.80
2018-01-23T14:00:02.405Z,8.50
2018-01-23T14:02:28.637Z,8.50
2018-01-23T14:04:54.936Z,8.40
2018-01-23T14:07:21.966Z,8.40
2018-01-23T14:09:49.730Z,8.40
2018-01-23T14:12:16.048Z,8.50
2018-01-23T14:14:42.313Z,8.60
2018-01-23T14:17:09.319Z,8.50
2018-01-23T14:19:35.607Z,8.50
2018-01-23T14:22:02.620Z,8.10
2018-01-23T14:24:28.884Z,8.10
2018-01-23T14:26:55.140Z,8.20
2018-01-23T14:29:21.571Z,8.00
2018-01-23T14:31:48.025Z,8.00
2018-01-23T14:34:15.293Z,7.60
2018-01-23T14:36:41.546Z,7.60
2018-01-23T14:39:07.854Z,7.70
2018-01-23T14:41:34.155Z,7.50
2018-01-23T14:44:00.454Z,7.60
2018-01-23T14:46:26.761Z,7.50
2018-01-23T14:48:53.790Z,7.40
2018-01-23T14:51:20.054Z,7.40
2018-01-23T14:53:47.134Z,7.20
2018-01-23T14:56:13.408Z,7.10
2018-01-23T14:58:39.709Z,7.20
2018-01-23T15:01:06.001Z,7.20
2018-01-23T15:03:32.956Z,7.10
2018-01-23T15:05:59.248Z,7.00
2018-01-23T15:08:27.005Z,6.90
2018-01-23T15:10:53.255Z,6.90
2018-01-23T15:13:19.559Z,6.90
2018-01-23T15:15:45.863Z,6.90
2018-01-23T15:18:13.020Z,7.00
2018-01-23T15:20:39.255Z,6.80
2018-01-23T15:23:05.519Z,6.80
2018-01-23T15:25:31.771Z,6.80
2018-01-23T15:27:57.993Z,6.60
2018-01-23T15:30:25.012Z,6.70
2018-01-23T15:32:51.272Z,6.70
2018-01-23T15:35:17.556Z,6.70
2018-01-23T15:37:43.882Z,6.70
2018-01-23T15:40:10.168Z,6.70
2018-01-23T15:42:37.158Z,6.70
2018-01-23T15:45:03.445Z,6.70
2018-01-23T15:47:30.458Z,6.60
2018-01-23T15:49:56.738Z,6.60
2018-01-23T15:52:23.007Z,6.50
2018-01-23T15:54:49.287Z,6.40
2018-01-23T15:57:15.494Z,6.40
2018-01-23T15:59:42.503Z,6.40
2018-01-23T16:02:08.756Z,6.50
2018-01-23T16:04:35.055Z,6.40
2018-01-23T16:07:01.403Z,6.40
2018-01-23T16:09:27.822Z,6.40
2018-01-23T16:11:54.341Z,6.30
2018-01-23T16:14:20.636Z,6.30
2018-01-23T16:16:47.729Z,6.30
2018-01-23T16:19:14.040Z,6.30
2018-01-23T16:21:40.358Z,6.40
2018-01-23T16:24:06.666Z,6.30
2018-01-23T16:26:33.748Z,6.40
2018-01-23T16:29:00.048Z,6.40
2018-01-23T16:31:26.362Z,6.30
2018-01-23T16:33:52.705Z,6.30
2018-01-23T16:36:19.030Z,6.30
2018-01-23T16:38:45.464Z,6.40
2018-01-23T16:41:11.738Z,6.30
2018-01-23T16:43:38.368Z,6.30
2018-01-23T16:46:04.736Z,6.20
2018-01-23T16:48:31.021Z,6.20
2018-01-23T16:50:57.355Z,6.20
2018-01-23T16:53:24.403Z,6.20
2018-01-23T16:55:50.814Z,6.20
2018-01-23T16:58:17.282Z,6.30
2018-01-23T17:00:43.593Z,6.20
2018-01-23T17:03:12.780Z,6.20
2018-01-23T17:05:39.666Z,6.20
2018-01-23T17:08:06.027Z,6.20
2018-01-23T17:10:32.726Z,6.20
2018-01-23T17:12:59.119Z,6.10
2018-01-23T17:15:25.449Z,6.10
2018-01-23T17:17:51.819Z,6.00
2018-01-23T17:20:18.196Z,6.10
2018-01-23T17:22:44.550Z,6.10
2018-01-23T17:25:11.660Z,6.00
2018-01-23T17:27:38.022Z,6.00
2018-01-23T17:30:04.339Z,6.00
2018-01-23T17:32:30.742Z,5.90
2018-01-23T17:34:57.134Z,5.90
2018-01-23T17:37:24.193Z,5.80
2018-01-23T17:39:51.235Z,5.80
2018-01-23T17:42:18.313Z,5.70
2018-01-23T17:44:44.673Z,5.70
2018-01-23T17:47:10.989Z,5.70
2018-01-23T17:49:38.056Z,5.70
2018-01-23T17:52:04.367Z,5.70
2018-01-23T17:54:31.471Z,5.70
2018-01-23T17:56:57.716Z,5.70
2018-01-23T17:59:24.730Z,5.70
2018-01-23T18:01:50.974Z,5.70
2018-01-23T18:04:17.275Z,5.70
2018-01-23T18:06:43.560Z,5.60
2018-01-23T18:09:10.570Z,5.60
2018-01-23T18:11:36.880Z,5.60
2018-01-23T18:14:03.164Z,5.60
2018-01-23T18:16:30.176Z,5.50
2018-01-23T18:18:56.516Z,5.50
2018-01-23T18:21:22.999Z,5.50
2018-01-23T18:23:49.308Z,5.40
2018-01-23T18:26:16.328Z,5.30
2018-01-23T18:28:42.595Z,5.30
2018-01-23T18:31:09.001Z,5.30
2018-01-23T18:33:36.015Z,5.30
2018-01-23T18:36:02.341Z,5.30
2018-01-23T18:38:28.623Z,5.30
2018-01-23T18:40:55.751Z,5.30
2018-01-23T18:43:22.071Z,5.30
2018-01-23T18:45:48.433Z,5.20
2018-01-23T18:48:15.495Z,5.30
2018-01-23T18:50:42.540Z,5.30
2018-01-23T18:53:09.604Z,5.30
2018-01-23T18:55:36.143Z,5.30
2018-01-23T18:58:02.445Z,5.30
2018-01-23T19:00:29.456Z,5.40
2018-01-23T19:02:55.960Z,5.40
2018-01-23T19:05:23.171Z,5.50
2018-01-23T19:07:50.236Z,5.60
2018-01-23T19:10:17.274Z,5.60
2018-01-23T19:12:44.321Z,5.60
2018-01-23T19:15:11.457Z,5.60
2018-01-23T19:17:37.729Z,5.60
2018-01-23T19:20:04.034Z,5.70
2018-01-23T19:22:31.296Z,5.70
2018-01-23T19:24:58.960Z,5.70
2018-01-23T19:27:25.243Z,5.70
2018-01-23T19:29:51.546Z,5.70
2018-01-23T19:32:17.900Z,5.80
2018-01-23T19:34:44.229Z,5.70
2018-01-23T19:37:11.255Z,5.80
2018-01-23T19:39:37.594Z,5.80
2018-01-23T19:42:03.876Z,5.80
2018-01-23T19:44:30.880Z,5.80
2018-01-23T19:46:57.832Z,5.80
2018-01-23T19:49:24.130Z,5.80
2018-01-23T19:51:50.469Z,5.90
2018-01-23T19:54:16.759Z,5.80
2018-01-23T19:56:43.753Z,5.90
2018-01-23T19:59:10.032Z,5.90
2018-01-23T20:01:36.314Z,5.90
2018-01-23T20:04:02.609Z,5.90
2018-01-23T20:06:29.642Z,5.90
2018-01-23T20:08:56.915Z,5.90
2018-01-23T20:11:23.937Z,6.00
2018-01-23T20:13:50.414Z,6.00
2018-01-23T20:16:17.119Z,6.00
2018-01-23T20:18:44.232Z,6.10
2018-01-23T20:21:10.603Z,6.10
2018-01-23T20:23:37.972Z,6.30
2018-01-23T20:26:05.026Z,6.40
2018-01-23T20:28:46.403Z,6.30
2018-01-23T20:31:12.734Z,6.40
2018-01-23T20:33:39.860Z,6.40
2018-01-23T20:36:06.180Z,6.40
2018-01-23T20:38:33.685Z,6.40
2018-01-23T20:41:00.743Z,6.50
2018-01-23T20:43:28.110Z,6.50
2018-01-23T20:45:54.501Z,6.50
2018-01-23T20:48:21.615Z,6.50
2018-01-23T20:50:47.892Z,6.50
2018-01-23T20:53:14.184Z,6.60
2018-01-23T20:55:40.498Z,6.50
2018-01-23T20:58:06.875Z,6.60
2018-01-23T21:00:33.895Z,6.50
2018-01-23T21:03:00.168Z,6.50
2018-01-23T21:05:26.449Z,6.50
2018-01-23T21:07:52.725Z,6.50
2018-01-23T21:10:19.045Z,6.50
2018-01-23T21:12:46.140Z,6.70
2018-01-23T21:15:12.445Z,6.70
2018-01-23T21:17:38.973Z,6.80
2018-01-23T21:20:06.038Z,6.80
2018-01-23T21:22:32.341Z,6.80
2018-01-23T21:25:00.322Z,6.90
2018-01-23T21:27:26.576Z,6.90
2018-01-23T21:32:50.524Z,7.00
2018-01-23T21:35:16.781Z,7.00
2018-01-23T21:37:43.016Z,7.10
2018-01-23T21:40:09.243Z,7.10
2018-01-23T21:42:35.479Z,7.20
2018-01-23T21:45:01.789Z,7.10
2018-01-23T21:47:28.797Z,7.00
2018-01-23T21:49:55.148Z,7.00
2018-01-23T21:52:21.407Z,7.00
2018-01-23T21:54:47.753Z,7.00
2018-01-23T21:57:13.983Z,7.00
2018-01-23T21:59:40.208Z,6.90
2018-01-23T22:02:06.451Z,6.90
2018-01-23T22:04:32.692Z,6.90
2018-01-23T22:06:58.964Z,6.90
2018-01-23T22:09:25.955Z,7.00
2018-01-23T22:11:52.187Z,6.90
2018-01-23T22:14:18.449Z,6.90
2018-01-23T22:16:44.702Z,7.00
2018-01-23T22:19:11.708Z,6.90
2018-01-23T22:21:37.989Z,6.90
2018-01-23T22:24:05.244Z,6.90
2018-01-23T22:26:32.378Z,6.90
2018-01-23T22:28:59.468Z,6.90
2018-01-23T22:31:25.822Z,6.90
2018-01-23T22:33:52.899Z,6.90
2018-01-23T22:36:19.135Z,6.80
2018-01-23T22:38:46.109Z,6.90
2018-01-23T22:41:12.348Z,6.80
2018-01-23T22:43:38.671Z,6.70
2018-01-23T22:46:04.978Z,6.70
2018-01-23T22:48:32.017Z,6.80
2018-01-23T22:50:58.269Z,6.70
2018-01-23T22:53:24.511Z,6.90
2018-01-23T22:55:50.748Z,6.90
2018-01-23T22:58:17.052Z,6.90
2018-01-23T23:00:44.073Z,6.90
2018-01-23T23:03:10.379Z,6.90
2018-01-23T23:05:36.648Z,6.80
2018-01-23T23:08:02.925Z,6.80
2018-01-23T23:10:29.184Z,6.80
2018-01-23T23:12:55.447Z,6.90
2018-01-23T23:15:22.436Z,6.90
2018-01-23T23:17:49.634Z,6.80
2018-01-23T23:20:16.596Z,6.90
2018-01-23T23:22:42.842Z,6.90
2018-01-23T23:25:09.137Z,7.00
2018-01-23T23:27:36.127Z,6.80
2018-01-23T23:30:02.469Z,6.80
2018-01-23T23:32:28.744Z,7.00
2018-01-23T23:37:27.608Z,7.00
2018-01-23T23:39:53.928Z,6.90
2018-01-23T23:42:20.168Z,7.10
2018-01-23T23:44:46.434Z,7.20
2018-01-23T23:47:12.674Z,7.10
2018-01-23T23:49:39.654Z,7.20
2018-01-23T23:52:05.898Z,7.20
2018-01-23T23:54:32.160Z,7.00
2018-01-23T23:56:58.402Z,6.90
2018-01-23T23:59:24.664Z,6.90
